Time;durP1;ratioP1;P1;durP2;ratioP2;P2;SDS_P1;SDS_P2;PMS_P1;PMS_P2;Temp;Humidity;BMP_temperature;BMP_pressure;BME280_temperature;BME280_humidity;BME280_pressure;Samples;Min_cycle;Max_cycle;Signal;HPM_P1;HPM_P2
2022/10/10 00:01:53;;;;;;;4.28;3.97;;;;;;;7.98;92.70;98644.06;4118291;28;20210;-57
2022/10/10 00:03:55;;;;;;;8.15;4.00;;;;;;;8.03;92.95;98645.00;4105178;28;20266;-57
2022/10/10 00:05:56;;;;;;;4.65;4.28;;;;;;;7.99;93.66;98645.72;4122742;28;20295;-57
2022/10/10 00:07:58;;;;;;;4.60;4.20;;;;;;;7.93;93.47;98646.63;4122604;28;20764;-57
2022/10/10 00:10:00;;;;;;;4.70;4.25;;;;;;;7.96;93.39;98641.53;4118715;28;20209;-56
2022/10/10 00:12:02;;;;;;;4.05;3.75;;;;;;;7.97;93.56;98640.50;4105270;28;20293;-57
2022/10/10 00:14:06;;;;;;;4.80;4.30;;;;;;;7.92;93.21;98636.78;4124409;28;20232;-57
2022/10/10 00:16:09;;;;;;;5.28;4.15;;;;;;;7.95;93.70;98634.44;4121784;28;22017;-56
2022/10/10 00:18:11;;;;;;;5.25;3.85;;;;;;;7.91;93.83;98643.31;4108278;28;20298;-56
2022/10/10 00:20:15;;;;;;;4.70;4.40;;;;;;;7.80;93.80;98635.91;4106390;28;20595;-57
2022/10/10 00:22:16;;;;;;;4.55;4.13;;;;;;;7.83;93.81;98635.47;4126251;28;20649;-57
2022/10/10 00:24:18;;;;;;;4.38;3.17;;;;;;;7.87;94.50;98642.09;4103746;28;20233;-57
2022/10/10 00:26:20;;;;;;;3.72;3.22;;;;;;;7.86;94.48;98644.00;4106912;28;20725;-58
2022/10/10 00:28:22;;;;;;;4.60;3.80;;;;;;;7.77;94.20;98637.22;4123503;28;20210;-57
2022/10/10 00:30:24;;;;;;;3.88;3.65;;;;;;;7.75;94.67;98638.50;4121169;28;20667;-58
2022/10/10 00:32:26;;;;;;;5.80;3.53;;;;;;;7.75;94.43;98633.88;4107856;28;20218;-58
2022/10/10 00:34:27;;;;;;;3.97;3.65;;;;;;;7.72;94.03;98633.50;4108045;28;20231;-58
2022/10/10 00:36:29;;;;;;;4.25;3.63;;;;;;;7.74;94.49;98639.53;4105339;28;20218;-58
2022/10/10 00:38:31;;;;;;;6.45;3.08;;;;;;;7.71;94.24;98637.28;4107852;28;20634;-58
2022/10/10 00:40:33;;;;;;;6.07;5.60;;;;;;;7.70;94.14;98635.63;4125879;28;20205;-58
2022/10/10 00:42:35;;;;;;;4.05;3.75;;;;;;;7.68;94.32;98635.03;4120550;28;20209;-57
2022/10/10 00:44:39;;;;;;;4.15;3.85;;;;;;;7.72;94.94;98634.34;4121802;28;20336;-57
2022/10/10 00:46:41;;;;;;;3.53;3.22;;;;;;;7.67;94.97;98630.63;4102433;28;20223;-57
2022/10/10 00:48:43;;;;;;;4.13;3.78;;;;;;;7.64;94.54;98631.09;4118527;28;20214;-58
2022/10/10 00:50:53;;;;;;;4.47;3.55;;;;;;;7.66;94.64;98632.53;4116299;28;20210;-58
2022/10/10 00:52:55;;;;;;;4.22;3.88;;;;;;;7.65;94.12;98633.59;4121194;28;20748;-58
2022/10/10 00:54:57;;;;;;;5.65;4.85;;;;;;;7.63;94.33;98634.88;4112805;28;20230;-59
2022/10/10 00:57:11;;;;;;;4.15;3.83;;;;;;;7.61;94.40;98637.00;4102474;28;20301;-59
2022/10/10 00:59:13;;;;;;;4.72;4.32;;;;;;;7.58;94.04;98632.00;4115878;28;20241;-59
2022/10/10 01:01:15;;;;;;;4.85;4.40;;;;;;;7.55;94.09;98632.47;4119958;28;20206;-59
2022/10/10 01:03:16;;;;;;;4.50;4.18;;;;;;;7.56;94.13;98629.50;4118141;28;20277;-59
2022/10/10 01:05:18;;;;;;;5.78;4.68;;;;;;;7.52;94.29;98622.03;4106048;28;20217;-59
2022/10/10 01:07:25;;;;;;;5.03;4.55;;;;;;;7.50;93.82;98621.44;4105299;28;20242;-59
2022/10/10 01:09:27;;;;;;;4.95;4.55;;;;;;;7.48;93.95;98626.28;4122780;28;20234;-58
2022/10/10 01:11:41;;;;;;;5.55;5.18;;;;;;;7.43;94.08;98628.84;4120866;28;20727;-58
2022/10/10 01:13:45;;;;;;;5.00;4.45;;;;;;;7.56;93.93;98631.41;4105613;28;20708;-58
2022/10/10 01:16:05;;;;;;;6.63;4.38;;;;;;;7.50;93.81;98622.25;4107082;28;21071;-57
2022/10/10 01:18:23;;;;;;;4.55;4.15;;;;;;;7.41;93.68;98620.09;4119701;28;20216;-57
2022/10/10 01:20:37;;;;;;;4.78;4.30;;;;;;;7.40;93.62;98621.13;4123241;28;20652;-60
2022/10/10 01:22:55;;;;;;;5.70;5.03;;;;;;;7.46;93.80;98617.50;4109754;28;20305;-58
2022/10/10 01:25:20;;;;;;;4.35;4.05;;;;;;;7.33;93.78;98628.53;4109224;28;20252;-57
2022/10/10 01:27:24;;;;;;;3.83;3.58;;;;;;;7.27;94.28;98618.53;4092511;28;20258;-58
2022/10/10 01:29:42;;;;;;;4.85;4.45;;;;;;;7.31;94.63;98617.03;4090403;28;20214;-58
2022/10/10 01:31:46;;;;;;;4.35;3.95;;;;;;;7.29;94.22;98611.00;4120888;28;20204;-58
2022/10/10 01:34:05;;;;;;;5.53;3.13;;;;;;;7.26;94.77;98619.59;4120219;28;20233;-58
2022/10/10 01:36:19;;;;;;;8.95;3.58;;;;;;;7.27;94.35;98615.81;4105389;28;20265;-58
2022/10/10 01:38:51;;;;;;;5.45;3.78;;;;;;;7.17;94.73;98607.38;4122716;28;20252;-58
2022/10/10 01:40:54;;;;;;;4.18;3.83;;;;;;;7.14;94.65;98613.25;4117196;28;20296;-57
2022/10/10 01:43:02;;;;;;;5.60;3.63;;;;;;;7.19;94.26;98610.69;4107885;28;20210;-57
2022/10/10 01:45:04;;;;;;;4.18;3.78;;;;;;;7.17;94.66;98608.19;4120902;28;20233;-57
2022/10/10 01:47:09;;;;;;;4.28;3.33;;;;;;;7.18;94.07;98609.88;4122542;28;20206;-57
2022/10/10 01:49:11;;;;;;;4.03;3.40;;;;;;;7.11;94.60;98605.56;4106070;28;20214;-58
2022/10/10 01:51:51;;;;;;;5.88;3.92;;;;;;;7.15;94.27;98598.63;4121328;28;20292;-57
2022/10/10 01:54:02;;;;;;;3.70;3.08;;;;;;;7.15;94.71;98599.44;4120949;28;20391;-58
2022/10/10 01:56:11;;;;;;;3.63;3.30;;;;;;;7.11;94.19;98597.38;4103674;28;20729;-58
2022/10/10 01:58:31;;;;;;;4.60;3.47;;;;;;;7.13;94.27;98598.81;4105687;28;20209;-59
2022/10/10 02:00:50;;;;;;;3.38;3.17;;;;;;;7.12;94.49;98601.78;4120651;28;20297;-58
2022/10/10 02:02:56;;;;;;;3.92;3.55;;;;;;;7.09;93.63;98597.59;4106344;28;20251;-58
2022/10/10 02:05:11;;;;;;;4.20;3.80;;;;;;;7.09;93.98;98600.31;4110109;28;20226;-58
2022/10/10 02:07:32;;;;;;;4.28;3.50;;;;;;;7.06;94.22;98589.91;4104815;28;20210;-58
2022/10/10 02:09:37;;;;;;;4.00;3.38;;;;;;;7.05;94.25;98598.28;4121400;28;20208;-58
2022/10/10 02:11:39;;;;;;;3.75;3.45;;;;;;;7.01;93.31;98595.19;4122384;28;20561;-58
2022/10/10 02:13:48;;;;;;;15.50;4.00;;;;;;;7.03;94.00;98597.69;4103393;28;20693;-58
2022/10/10 02:15:52;;;;;;;3.88;3.47;;;;;;;7.05;93.89;98592.84;4106716;28;20224;-59
2022/10/10 02:17:55;;;;;;;3.58;3.15;;;;;;;7.02;93.93;98593.31;4119953;28;20224;-58
2022/10/10 02:19:58;;;;;;;5.10;3.58;;;;;;;7.06;94.05;98589.06;4108138;28;20207;-58
2022/10/10 02:22:00;;;;;;;3.92;3.53;;;;;;;7.05;94.47;98593.69;4125002;28;20629;-58
2022/10/10 02:24:04;;;;;;;5.43;3.85;;;;;;;7.00;94.35;98584.53;4104791;28;20279;-58
2022/10/10 02:26:07;;;;;;;4.07;3.78;;;;;;;6.94;94.32;98585.44;4101851;28;20211;-58
2022/10/10 02:28:14;;;;;;;7.28;3.63;;;;;;;6.90;94.29;98584.22;4122658;28;20309;-57
2022/10/10 02:30:17;;;;;;;4.15;3.75;;;;;;;6.87;94.39;98587.38;4123207;28;20851;-59
2022/10/10 02:32:31;;;;;;;4.95;4.07;;;;;;;6.86;93.97;98585.72;4106449;28;20211;-59
2022/10/10 02:34:36;;;;;;;4.60;3.95;;;;;;;6.91;94.18;98585.88;4123002;28;20660;-59
2022/10/10 02:36:39;;;;;;;4.22;3.88;;;;;;;6.90;94.51;98584.22;4123217;28;20305;-58
2022/10/10 02:38:42;;;;;;;3.47;2.78;;;;;;;6.81;94.00;98586.41;4123332;28;20277;-58
2022/10/10 02:40:44;;;;;;;3.17;2.92;;;;;;;6.78;94.38;98592.31;4123658;28;20317;-58
2022/10/10 02:42:46;;;;;;;3.58;3.30;;;;;;;6.73;93.68;98583.13;4121938;28;20223;-58
2022/10/10 02:44:49;;;;;;;4.22;3.90;;;;;;;6.76;93.88;98593.59;4106876;28;20234;-58
2022/10/10 02:46:51;;;;;;;3.10;2.90;;;;;;;6.74;93.78;98590.22;4123144;28;20202;-58
2022/10/10 02:48:52;;;;;;;3.75;3.45;;;;;;;6.74;94.34;98590.22;4107666;28;20302;-59
2022/10/10 02:50:55;;;;;;;3.80;3.50;;;;;;;6.66;94.31;98580.50;4125199;28;20202;-57
2022/10/10 02:52:57;;;;;;;4.55;4.03;;;;;;;6.69;93.69;98592.81;4106034;28;20215;-59
2022/10/10 02:54:59;;;;;;;4.30;3.83;;;;;;;6.79;93.93;98593.97;4123766;28;20274;-58
2022/10/10 02:57:01;;;;;;;4.45;3.88;;;;;;;6.72;93.75;98589.63;4106658;28;20227;-58
2022/10/10 02:59:03;;;;;;;3.38;3.08;;;;;;;6.66;94.21;98593.25;4122882;28;20234;-59
2022/10/10 03:01:05;;;;;;;3.60;3.33;;;;;;;6.65;94.17;98589.72;4123531;28;20217;-59
2022/10/10 03:03:06;;;;;;;3.20;2.90;;;;;;;6.68;94.27;98588.44;4123361;28;20277;-57
2022/10/10 03:05:09;;;;;;;5.40;3.03;;;;;;;6.65;93.73;98584.28;4123674;28;20265;-59
2022/10/10 03:07:10;;;;;;;3.35;2.92;;;;;;;6.65;93.79;98578.00;4122879;28;20205;-58
2022/10/10 03:09:12;;;;;;;6.22;4.32;;;;;;;6.61;93.58;98588.47;4109204;28;20233;-58
2022/10/10 03:11:14;;;;;;;4.00;3.35;;;;;;;6.54;94.14;98589.59;4112657;28;20202;-58
2022/10/10 03:13:17;;;;;;;4.15;3.42;;;;;;;6.49;93.88;98586.72;4124494;28;20261;-58
2022/10/10 03:15:18;;;;;;;4.53;3.22;;;;;;;6.55;94.21;98580.41;4126143;28;20213;-59
2022/10/10 03:17:20;;;;;;;4.40;4.10;;;;;;;6.57;93.41;98581.00;4109216;28;20237;-58
2022/10/10 03:19:22;;;;;;;3.45;3.08;;;;;;;6.54;93.68;98585.00;4125102;28;20273;-59
2022/10/10 03:21:23;;;;;;;3.70;3.47;;;;;;;6.53;93.63;98577.91;4109258;28;20277;-58
2022/10/10 03:23:25;;;;;;;4.15;3.85;;;;;;;6.49;94.14;98581.28;4126537;28;20198;-59
2022/10/10 03:25:27;;;;;;;3.88;3.58;;;;;;;6.53;94.76;98582.50;4106356;28;20776;-59
2022/10/10 03:27:29;;;;;;;3.42;3.13;;;;;;;6.57;94.41;98576.38;4126908;28;20252;-59
2022/10/10 03:29:30;;;;;;;2.83;2.63;;;;;;;6.56;94.48;98587.50;4124284;28;20778;-58
2022/10/10 03:31:32;;;;;;;3.50;3.20;;;;;;;6.59;94.45;98581.59;4128984;28;20209;-59
2022/10/10 03:33:34;;;;;;;3.58;3.30;;;;;;;6.58;94.67;98569.91;4109598;28;20236;-57
2022/10/10 03:35:36;;;;;;;3.05;2.85;;;;;;;6.52;94.09;98575.41;4121662;28;20261;-59
2022/10/10 03:37:38;;;;;;;3.83;3.45;;;;;;;6.55;93.89;98575.78;4124612;28;20611;-59
2022/10/10 03:39:39;;;;;;;3.78;2.95;;;;;;;6.45;94.40;98590.94;4111813;28;20558;-59
2022/10/10 03:41:41;;;;;;;3.63;3.15;;;;;;;6.44;94.99;98581.13;4107811;28;20245;-59
2022/10/10 03:43:42;;;;;;;3.30;3.08;;;;;;;6.47;94.50;98588.81;4100562;28;20241;-57
2022/10/10 03:45:46;;;;;;;4.28;3.13;;;;;;;6.45;94.04;98597.22;4103867;28;20232;-58
2022/10/10 03:47:48;;;;;;;3.35;3.05;;;;;;;6.45;94.44;98596.38;4125398;28;20240;-59
2022/10/10 03:49:50;;;;;;;3.38;3.08;;;;;;;6.44;93.97;98586.56;4118815;28;20248;-59
2022/10/10 03:51:52;;;;;;;3.00;2.80;;;;;;;6.50;94.49;98589.19;4111522;28;20204;-58
2022/10/10 03:53:54;;;;;;;3.85;3.38;;;;;;;6.41;94.29;98589.69;4122584;28;20233;-57
2022/10/10 03:55:56;;;;;;;3.08;2.88;;;;;;;6.44;94.20;98589.28;4109280;28;20210;-58
2022/10/10 03:57:58;;;;;;;15.75;4.60;;;;;;;6.38;94.06;98588.28;4109538;28;20207;-58
2022/10/10 04:00:00;;;;;;;4.55;3.10;;;;;;;6.43;94.28;98587.59;4122521;28;20215;-58
2022/10/10 04:02:01;;;;;;;3.25;2.95;;;;;;;6.34;93.71;98589.75;4126703;28;20282;-58
2022/10/10 04:04:04;;;;;;;8.18;3.30;;;;;;;6.33;94.00;98598.97;4124987;28;20316;-59
2022/10/10 04:06:06;;;;;;;4.10;3.60;;;;;;;6.28;94.19;98595.28;4110113;28;20211;-58
2022/10/10 04:08:08;;;;;;;4.88;3.47;;;;;;;6.32;94.54;98593.75;4108224;28;20204;-58
2022/10/10 04:10:10;;;;;;;7.85;3.40;;;;;;;6.35;94.19;98596.03;4109412;28;20213;-59
2022/10/10 04:12:12;;;;;;;2.88;2.65;;;;;;;6.28;93.65;98595.28;4120912;28;20211;-59
2022/10/10 04:14:13;;;;;;;3.05;2.75;;;;;;;6.26;94.30;98602.78;4103249;28;20230;-59
2022/10/10 04:16:15;;;;;;;5.10;4.22;;;;;;;6.23;94.02;98597.81;4107609;28;20229;-59
2022/10/10 04:18:17;;;;;;;3.60;3.40;;;;;;;6.27;94.19;98593.56;4123819;28;20243;-57
2022/10/10 04:20:19;;;;;;;3.90;3.60;;;;;;;6.31;94.31;98605.69;4094158;28;20739;-59
2022/10/10 04:22:21;;;;;;;3.25;3.05;;;;;;;6.26;94.19;98608.22;4108733;28;20218;-59
2022/10/10 04:24:22;;;;;;;4.05;3.67;;;;;;;6.20;94.32;98593.63;4112811;28;20274;-59
2022/10/10 04:26:24;;;;;;;3.63;3.33;;;;;;;6.27;93.98;98593.56;4125103;28;20269;-58
2022/10/10 04:28:27;;;;;;;7.05;3.40;;;;;;;6.18;94.45;98587.59;4130201;28;20217;-57
2022/10/10 04:30:33;;;;;;;4.00;3.17;;;;;;;6.15;94.22;98592.66;4123714;28;20214;-59
2022/10/10 04:32:35;;;;;;;3.35;3.10;;;;;;;6.13;94.15;98592.00;4108754;28;20776;-59
2022/10/10 04:34:37;;;;;;;2.47;2.28;;;;;;;6.13;94.40;98598.28;4124519;28;20312;-58
2022/10/10 04:36:39;;;;;;;3.72;3.10;;;;;;;6.15;94.26;98590.75;4094478;28;20238;-58
2022/10/10 04:38:40;;;;;;;6.10;3.30;;;;;;;6.09;94.63;98598.97;4125398;28;20212;-58
2022/10/10 04:40:42;;;;;;;4.18;3.78;;;;;;;6.10;94.52;98596.00;4122043;28;20644;-58
2022/10/10 04:42:44;;;;;;;9.70;7.70;;;;;;;6.05;94.69;98581.44;4123402;28;20758;-58
2022/10/10 04:44:45;;;;;;;7.38;6.70;;;;;;;6.05;94.61;98584.13;4110682;28;20231;-59
2022/10/10 04:46:47;;;;;;;4.95;4.50;;;;;;;6.08;95.03;98586.44;4125051;28;20733;-59
2022/10/10 04:48:49;;;;;;;5.97;4.97;;;;;;;6.07;94.52;98590.16;4124795;28;21073;-60
2022/10/10 04:50:52;;;;;;;6.18;5.53;;;;;;;6.10;94.93;98595.19;4122712;28;20256;-60
2022/10/10 04:52:54;;;;;;;5.85;4.88;;;;;;;6.09;94.37;98596.25;4108361;28;20211;-59
2022/10/10 04:54:55;;;;;;;6.57;5.97;;;;;;;6.10;94.86;98603.34;4123104;28;20317;-59
2022/10/10 04:56:57;;;;;;;6.22;5.57;;;;;;;6.15;94.27;98600.81;4110935;28;20230;-58
2022/10/10 04:58:59;;;;;;;5.72;4.82;;;;;;;6.13;94.85;98598.28;4120737;28;20297;-59
2022/10/10 05:01:01;;;;;;;4.05;3.75;;;;;;;6.16;95.30;98602.47;4123499;28;20238;-58
2022/10/10 05:03:03;;;;;;;4.30;3.83;;;;;;;6.15;95.13;98596.19;4124315;28;20265;-57
2022/10/10 05:05:05;;;;;;;5.60;3.35;;;;;;;6.19;95.19;98597.41;4109889;28;20257;-58
2022/10/10 05:07:07;;;;;;;4.55;4.15;;;;;;;6.25;95.55;98595.69;4106691;28;20203;-58
2022/10/10 05:09:09;;;;;;;6.47;3.83;;;;;;;6.06;96.51;98589.38;4121409;28;20210;-58
2022/10/10 05:11:11;;;;;;;10.05;3.92;;;;;;;6.07;97.02;98587.47;4120609;28;20224;-58
2022/10/10 05:13:14;;;;;;;4.13;3.80;;;;;;;6.12;97.02;98584.94;4106731;28;20225;-58
2022/10/10 05:15:16;;;;;;;3.75;3.20;;;;;;;5.93;97.96;98588.59;4107166;28;20246;-58
2022/10/10 05:17:18;;;;;;;4.10;3.72;;;;;;;5.94;97.72;98592.97;4124540;28;20237;-61
2022/10/10 05:19:20;;;;;;;9.40;3.28;;;;;;;5.97;98.14;98587.13;4124787;28;20239;-58
2022/10/10 05:21:22;;;;;;;3.08;2.80;;;;;;;6.06;98.25;98593.94;4106732;28;20257;-58
2022/10/10 05:23:24;;;;;;;6.40;3.30;;;;;;;6.12;97.91;98593.06;4109826;28;20203;-57
2022/10/10 05:25:26;;;;;;;3.53;3.22;;;;;;;6.14;98.56;98599.09;4108017;28;20247;-59
2022/10/10 05:27:28;;;;;;;3.72;3.35;;;;;;;6.24;97.86;98594.03;4108745;28;20207;-59
2022/10/10 05:29:30;;;;;;;3.58;3.28;;;;;;;6.24;98.04;98599.47;4093431;28;20216;-58
2022/10/10 05:31:33;;;;;;;4.85;3.78;;;;;;;6.27;97.69;98594.41;4109864;28;20206;-59
2022/10/10 05:33:35;;;;;;;5.05;3.83;;;;;;;6.33;97.89;98587.25;4111793;28;20226;-58
2022/10/10 05:35:37;;;;;;;4.22;3.92;;;;;;;6.37;97.92;98589.31;4123991;28;20233;-58
2022/10/10 05:37:38;;;;;;;12.13;4.50;;;;;;;6.35;98.04;98587.91;4125422;28;20317;-58
2022/10/10 05:39:40;;;;;;;4.25;3.85;;;;;;;6.39;97.99;98591.81;4109476;28;20298;-58
2022/10/10 05:41:42;;;;;;;4.60;4.15;;;;;;;6.48;98.07;98595.94;4123979;28;20656;-58
2022/10/10 05:43:44;;;;;;;4.65;3.80;;;;;;;6.43;97.53;98593.84;4105864;28;20484;-59
2022/10/10 05:45:46;;;;;;;3.70;3.17;;;;;;;6.50;97.77;98588.38;4122438;28;20474;-59
2022/10/10 05:47:47;;;;;;;11.65;4.25;;;;;;;6.53;98.73;98582.50;4126091;28;20211;-59
2022/10/10 05:49:49;;;;;;;4.28;3.90;;;;;;;6.55;98.23;98585.84;4122366;28;20217;-59
2022/10/10 05:51:51;;;;;;;4.43;3.97;;;;;;;6.52;98.85;98586.25;4091507;28;20219;-59
2022/10/10 05:53:52;;;;;;;4.78;4.38;;;;;;;6.53;98.82;98590.63;4117373;28;21499;-60
2022/10/10 05:55:54;;;;;;;4.65;4.25;;;;;;;6.59;98.75;98589.75;4116105;28;20297;-60
2022/10/10 05:57:56;;;;;;;5.40;4.22;;;;;;;6.57;98.84;98591.88;4114817;28;20697;-59
2022/10/10 06:00:01;;;;;;;4.95;4.55;;;;;;;6.62;98.65;98592.84;4117240;28;20643;-59
2022/10/10 06:02:03;;;;;;;6.15;5.65;;;;;;;6.63;97.99;98599.13;4106531;28;20215;-58
2022/10/10 06:04:05;;;;;;;8.65;7.85;;;;;;;6.67;98.46;98606.63;4107320;28;20231;-57
2022/10/10 06:06:08;;;;;;;9.80;8.98;;;;;;;6.71;98.87;98594.25;4111143;28;20198;-60
2022/10/10 06:08:10;;;;;;;9.15;8.25;;;;;;;6.72;98.83;98597.78;4124967;28;20328;-60
2022/10/10 06:10:16;;;;;;;8.75;8.05;;;;;;;6.74;99.20;98601.09;4108019;28;20217;-60
2022/10/10 06:12:19;;;;;;;8.40;7.60;;;;;;;6.89;99.47;98609.78;4111560;28;20200;-59
2022/10/10 06:14:21;;;;;;;7.95;5.93;;;;;;;6.86;99.57;98610.19;4107062;28;20353;-60
2022/10/10 06:16:27;;;;;;;6.25;5.50;;;;;;;6.85;99.46;98608.53;4106929;28;20215;-58
2022/10/10 06:18:32;;;;;;;6.40;5.95;;;;;;;6.87;99.36;98612.72;4123227;28;20902;-58
2022/10/10 06:20:38;;;;;;;14.05;4.53;;;;;;;6.87;99.19;98614.59;4121930;28;20205;-58
2022/10/10 06:22:40;;;;;;;5.32;4.95;;;;;;;6.85;99.37;98608.53;4110550;28;20216;-58
2022/10/10 06:24:42;;;;;;;17.27;15.45;;;;;;;7.01;99.72;98624.28;4123252;28;20257;-58
2022/10/10 06:26:44;;;;;;;18.35;11.65;;;;;;;7.00;100.00;98617.16;4119904;28;20202;-59
2022/10/10 06:28:46;;;;;;;20.50;15.20;;;;;;;6.95;99.34;98622.47;4108321;28;20211;-59
2022/10/10 06:30:49;;;;;;;23.35;20.98;;;;;;;7.04;100.00;98624.69;4106425;28;20241;-60
2022/10/10 06:32:51;;;;;;;24.80;21.83;;;;;;;7.08;100.00;98619.63;4088585;28;20318;-59
2022/10/10 06:34:57;;;;;;;19.83;17.92;;;;;;;7.13;100.00;98622.47;4122069;28;20272;-58
2022/10/10 06:36:59;;;;;;;14.07;12.68;;;;;;;7.21;100.00;98624.94;4121785;28;20703;-56
2022/10/10 06:39:01;;;;;;;13.48;12.18;;;;;;;7.21;100.00;98624.94;4124241;28;20265;-59
2022/10/10 06:41:03;;;;;;;11.25;9.23;;;;;;;7.23;99.59;98639.13;4122232;28;20932;-58
2022/10/10 06:43:10;;;;;;;10.13;8.15;;;;;;;7.27;99.94;98626.72;4108957;28;20314;-57
2022/10/10 06:45:12;;;;;;;9.40;7.15;;;;;;;7.26;100.00;98634.06;4122854;28;20304;-58
2022/10/10 06:47:13;;;;;;;9.02;6.93;;;;;;;7.28;100.00;98631.13;4115416;28;20297;-58
2022/10/10 06:49:17;;;;;;;8.43;7.38;;;;;;;7.37;100.00;98629.75;4125358;28;20213;-58
2022/10/10 06:51:19;;;;;;;8.10;6.88;;;;;;;7.53;100.00;98632.69;4128196;28;20209;-58
2022/10/10 06:53:20;;;;;;;11.38;7.20;;;;;;;7.45;100.00;98641.19;4126348;28;20207;-57
2022/10/10 06:55:22;;;;;;;5.78;5.38;;;;;;;7.43;100.00;98639.75;4110134;28;20214;-58
2022/10/10 06:57:24;;;;;;;5.93;5.43;;;;;;;7.50;100.00;98640.50;4105266;28;20237;-60
2022/10/10 06:59:25;;;;;;;5.45;4.85;;;;;;;7.46;100.00;98645.56;4105235;28;20290;-59
2022/10/10 07:01:27;;;;;;;6.07;4.93;;;;;;;7.58;100.00;98645.63;4119410;28;20194;-59
2022/10/10 07:03:30;;;;;;;6.93;6.10;;;;;;;7.58;100.00;98651.06;4125828;28;21670;-59
2022/10/10 07:05:31;;;;;;;6.65;5.20;;;;;;;7.58;100.00;98648.34;4105095;28;20298;-58
2022/10/10 07:07:34;;;;;;;5.93;5.53;;;;;;;7.64;100.00;98647.44;4124846;28;20562;-55
2022/10/10 07:09:35;;;;;;;5.43;4.85;;;;;;;7.57;100.00;98646.69;4105439;28;20209;-55
2022/10/10 07:11:38;;;;;;;6.15;5.63;;;;;;;7.71;100.00;98651.75;4107637;28;20611;-52
2022/10/10 07:13:40;;;;;;;4.95;4.07;;;;;;;7.65;100.00;98654.53;4106782;28;20226;-52
2022/10/10 07:15:43;;;;;;;5.63;5.03;;;;;;;7.64;100.00;98647.44;4109174;28;20282;-51
2022/10/10 07:17:45;;;;;;;5.75;3.92;;;;;;;7.77;100.00;98659.00;4111297;28;20261;-54
2022/10/10 07:19:53;;;;;;;4.35;3.95;;;;;;;7.87;100.00;98658.44;4108735;28;20292;-51
2022/10/10 07:21:55;;;;;;;5.97;5.47;;;;;;;7.95;100.00;98666.31;4121165;28;20206;-52
2022/10/10 07:23:57;;;;;;;5.18;4.63;;;;;;;7.96;100.00;98668.78;4105197;28;20230;-53
2022/10/10 07:26:01;;;;;;;12.50;4.97;;;;;;;8.52;100.00;98658.38;4102316;28;20299;-51
2022/10/10 07:28:03;;;;;;;6.32;5.70;;;;;;;9.27;100.00;98654.78;4103964;28;20253;-52
2022/10/10 07:30:05;;;;;;;6.43;5.93;;;;;;;9.73;100.00;98659.31;4107164;28;21767;-51
2022/10/10 07:32:07;;;;;;;4.93;4.50;;;;;;;10.18;97.09;98661.13;4108082;28;20772;-51
2022/10/10 07:34:09;;;;;;;6.15;3.85;;;;;;;10.42;94.80;98661.88;4110985;28;20234;-53
2022/10/10 07:36:11;;;;;;;6.15;5.00;;;;;;;10.26;93.56;98659.91;4124030;28;20251;-53
2022/10/10 07:38:13;;;;;;;6.68;4.60;;;;;;;10.76;94.50;98674.50;4105846;28;21523;-52
2022/10/10 07:40:15;;;;;;;5.93;3.45;;;;;;;10.88;91.66;98668.72;4122077;28;20695;-50
2022/10/10 07:42:18;;;;;;;5.05;4.07;;;;;;;11.43;88.78;98666.03;4127636;28;20647;-50
2022/10/10 07:44:23;;;;;;;5.15;3.90;;;;;;;11.54;89.26;98667.81;4126242;28;20231;-51
2022/10/10 07:46:24;;;;;;;4.75;4.35;;;;;;;11.81;86.98;98672.38;4123261;28;20214;-50
2022/10/10 07:48:27;;;;;;;4.78;4.28;;;;;;;11.59;88.58;98666.03;4123575;28;20635;-50
2022/10/10 07:50:29;;;;;;;5.43;3.55;;;;;;;12.13;86.10;98667.00;4125067;28;20209;-51
2022/10/10 07:52:31;;;;;;;6.05;3.72;;;;;;;11.83;86.70;98677.59;4109907;28;20202;-52
2022/10/10 07:54:33;;;;;;;4.78;4.38;;;;;;;12.00;85.64;98683.84;4122431;28;20232;-49
2022/10/10 07:56:34;;;;;;;9.45;5.28;;;;;;;13.11;85.91;98679.28;4106591;28;20202;-50
2022/10/10 07:58:37;;;;;;;4.43;3.65;;;;;;;12.51;82.90;98675.94;4123831;28;20253;-52
2022/10/10 08:00:42;;;;;;;4.90;3.45;;;;;;;13.16;83.71;98684.84;4106823;28;20297;-49
2022/10/10 08:02:44;;;;;;;6.20;4.20;;;;;;;14.00;80.98;98675.50;4124478;28;20244;-51
2022/10/10 08:04:48;;;;;;;5.80;5.40;;;;;;;14.54;79.35;98676.81;4106230;28;20234;-50
2022/10/10 08:06:50;;;;;;;8.60;5.40;;;;;;;13.92;80.83;98684.25;4111803;28;20664;-52
2022/10/10 08:08:52;;;;;;;6.00;5.50;;;;;;;14.29;81.02;98673.19;4119106;28;20819;-50
2022/10/10 08:10:54;;;;;;;11.13;4.32;;;;;;;14.12;77.37;98687.13;4104235;28;20644;-54
2022/10/10 08:12:56;;;;;;;5.07;4.68;;;;;;;14.59;77.92;98685.09;4101502;28;20218;-50
2022/10/10 08:14:58;;;;;;;5.13;4.63;;;;;;;14.12;78.42;98684.38;4121880;28;20347;-50
2022/10/10 08:16:59;;;;;;;6.50;4.32;;;;;;;13.84;78.86;98692.19;4103420;28;20503;-50
2022/10/10 08:19:03;;;;;;;3.22;2.92;;;;;;;13.64;79.21;98692.88;4101355;28;20807;-50
2022/10/10 08:24:21;;;;;;;12.07;4.55;;;;;;;13.44;80.55;98687.25;4101843;28;20245;-51
2022/10/10 08:26:23;;;;;;;6.72;5.82;;;;;;;13.52;80.86;98695.03;4119433;28;20208;-53
2022/10/10 08:28:25;;;;;;;6.80;6.25;;;;;;;13.65;81.74;98683.56;4113670;28;20212;-49
2022/10/10 08:30:27;;;;;;;6.32;5.72;;;;;;;13.67;81.43;98683.28;4117075;28;20217;-49
2022/10/10 08:32:28;;;;;;;7.03;5.13;;;;;;;13.57;83.36;98686.78;4121833;28;20350;-50
2022/10/10 08:34:30;;;;;;;4.43;4.05;;;;;;;13.43;83.91;98685.59;4117575;28;20226;-53
2022/10/10 08:36:32;;;;;;;4.53;4.13;;;;;;;13.54;81.76;98689.22;4105093;28;20301;-50
2022/10/10 08:38:34;;;;;;;4.25;3.95;;;;;;;13.40;81.76;98691.63;4120781;28;20229;-50
2022/10/10 08:40:47;;;;;;;5.63;3.47;;;;;;;13.08;84.58;98690.81;4120646;28;20236;-48
2022/10/10 08:42:52;;;;;;;4.50;4.03;;;;;;;12.75;89.35;98682.78;4124577;28;20218;-50
2022/10/10 08:45:01;;;;;;;7.93;3.45;;;;;;;12.98;85.48;98685.22;4117324;28;20229;-51
2022/10/10 08:47:03;;;;;;;8.20;3.75;;;;;;;12.92;86.36;98682.66;4087221;28;20214;-52
2022/10/10 08:49:24;;;;;;;5.28;4.30;;;;;;;13.25;86.97;98683.25;4124722;28;20213;-48
2022/10/10 08:51:31;;;;;;;7.88;3.38;;;;;;;13.83;85.33;98679.53;4126331;28;20698;-50
2022/10/10 08:53:45;;;;;;;5.90;5.18;;;;;;;14.25;85.84;98672.88;4123798;28;20226;-50
2022/10/10 08:55:48;;;;;;;18.55;6.43;;;;;;;14.36;84.71;98685.56;4123574;28;20206;-48
2022/10/10 08:58:13;;;;;;;5.80;4.70;;;;;;;14.78;84.07;98680.75;4105332;28;20239;-46
2022/10/10 09:00:18;;;;;;;12.45;5.72;;;;;;;14.59;84.65;98690.63;4108695;28;20237;-47
2022/10/10 09:02:43;;;;;;;8.95;6.35;;;;;;;14.87;83.52;98687.38;4092644;28;20215;-48
2022/10/10 09:04:56;;;;;;;7.53;5.93;;;;;;;15.51;81.90;98677.47;4103542;28;20320;-48
2022/10/10 09:07:10;;;;;;;5.88;5.13;;;;;;;15.19;82.84;98676.91;4119923;28;20205;-48
2022/10/10 09:09:48;;;;;;;5.75;5.13;;;;;;;15.80;81.81;98678.53;4106278;28;21129;-49
2022/10/10 09:12:02;;;;;;;8.25;5.05;;;;;;;16.96;79.57;98674.13;4109565;28;20253;-48
2022/10/10 09:14:32;;;;;;;5.32;4.53;;;;;;;17.02;80.08;98678.53;4112056;28;20227;-47
2022/10/10 09:16:45;;;;;;;6.40;4.95;;;;;;;16.88;80.19;98674.75;4107931;28;20770;-50
2022/10/10 09:18:58;;;;;;;4.75;4.15;;;;;;;17.32;80.84;98672.78;4121332;28;20234;-49
2022/10/10 09:21:21;;;;;;;6.30;4.57;;;;;;;17.40;80.78;98670.22;4111683;28;20202;-48
2022/10/10 09:23:31;;;;;;;5.63;4.55;;;;;;;18.09;80.38;98672.56;4125957;28;20273;-49
2022/10/10 09:25:39;;;;;;;8.32;4.93;;;;;;;18.82;76.02;98665.53;4124001;28;20218;-48
2022/10/10 09:27:51;;;;;;;5.03;3.67;;;;;;;19.62;73.69;98669.81;4105747;28;20210;-49
2022/10/10 09:30:18;;;;;;;6.28;4.05;;;;;;;18.88;75.50;98665.19;4123309;28;20949;-49
2022/10/10 09:32:23;;;;;;;7.20;4.07;;;;;;;18.98;76.00;98664.19;4119403;28;20207;-50
2022/10/10 09:35:04;;;;;;;5.03;3.78;;;;;;;19.13;75.73;98666.72;4108480;28;20321;-51
2022/10/10 09:37:17;;;;;;;4.63;4.07;;;;;;;18.98;76.79;98669.75;4124120;28;20296;-48
2022/10/10 09:39:48;;;;;;;5.80;4.32;;;;;;;18.68;79.80;98667.41;4094687;28;20237;-48
2022/10/10 09:41:59;;;;;;;4.72;4.00;;;;;;;19.15;76.39;98672.78;4107495;28;22054;-48
2022/10/10 09:44:06;;;;;;;4.75;3.50;;;;;;;19.53;75.67;98668.88;4124940;28;20348;-49
2022/10/10 09:46:08;;;;;;;5.45;4.07;;;;;;;18.52;77.58;98665.97;4120998;28;20208;-50
2022/10/10 09:48:10;;;;;;;6.20;3.80;;;;;;;19.36;75.93;98665.81;4106985;28;20242;-49
2022/10/10 09:50:13;;;;;;;4.97;3.58;;;;;;;20.17;75.23;98664.06;4118378;28;20202;-50
2022/10/10 09:52:26;;;;;;;3.65;3.25;;;;;;;20.09;73.82;98664.78;4118326;28;20357;-48
2022/10/10 09:54:27;;;;;;;3.75;2.92;;;;;;;20.52;72.47;98656.97;4121650;28;20301;-48
2022/10/10 09:56:40;;;;;;;5.90;4.10;;;;;;;20.25;74.34;98668.91;4106774;28;20203;-49